Time;durP1;ratioP1;P1;durP2;ratioP2;P2;SDS_P1;SDS_P2;PMS_P1;PMS_P2;Temp;Humidity;BMP_temperature;BMP_pressure;BME280_temperature;BME280_humidity;BME280_pressure;Samples;Min_cycle;Max_cycle;Signal;HPM_P1;HPM_P2
2022/07/04 00:00:21;;;;;;;13.95;12.55;;;;;;;;;;5095055;28;20434;-71
2022/07/04 00:02:48;;;;;;;14.65;13.05;;;;;;;;;;5094127;28;20024;-70
2022/07/04 00:05:14;;;;;;;16.65;12.02;;;;;;;;;;5094567;28;20028;-63
2022/07/04 00:07:41;;;;;;;14.80;11.77;;;;;;;;;;5094586;28;20024;-71
2022/07/04 00:10:08;;;;;;;14.57;13.15;;;;;;;;;;5094645;28;20028;-70
2022/07/04 00:12:34;;;;;;;14.38;12.40;;;;;;;;;;5094603;28;20462;-64
2022/07/04 00:15:01;;;;;;;16.48;12.75;;;;;;;;;;5094476;28;20113;-64
2022/07/04 00:17:27;;;;;;;14.80;12.63;;;;;;;;;;5094554;28;20028;-62
2022/07/04 00:19:53;;;;;;;13.45;12.35;;;;;;;;;;5094753;28;20023;-65
2022/07/04 00:22:19;;;;;;;15.43;13.40;;;;;;;;;;5094252;28;20078;-62
2022/07/04 00:24:45;;;;;;;14.40;13.00;;;;;;;;;;5094443;28;20063;-64
2022/07/04 00:27:11;;;;;;;15.88;12.23;;;;;;;;;;5076175;28;20035;-67
2022/07/04 00:29:37;;;;;;;13.40;12.10;;;;;;;;;;5094251;28;20390;-71
2022/07/04 00:32:03;;;;;;;12.60;11.40;;;;;;;;;;5094311;28;20131;-71
2022/07/04 00:34:29;;;;;;;13.95;12.55;;;;;;;;;;5094214;28;20081;-63
2022/07/04 00:36:56;;;;;;;13.00;11.70;;;;;;;;;;5094274;28;20035;-71
2022/07/04 00:39:22;;;;;;;14.25;12.80;;;;;;;;;;5094126;28;20463;-70
2022/07/04 00:41:48;;;;;;;14.07;12.77;;;;;;;;;;5093485;28;20499;-62
2022/07/04 00:44:17;;;;;;;13.63;12.23;;;;;;;;;;5094087;28;20446;-68
2022/07/04 00:46:44;;;;;;;14.13;12.35;;;;;;;;;;5094082;28;20035;-72
2022/07/04 00:49:11;;;;;;;14.02;12.65;;;;;;;;;;5093981;28;20043;-71
2022/07/04 00:51:40;;;;;;;13.63;12.30;;;;;;;;;;5093921;28;20027;-73
2022/07/04 00:54:07;;;;;;;15.25;12.45;;;;;;;;;;5093774;28;20050;-70
2022/07/04 00:56:35;;;;;;;15.18;12.65;;;;;;;;;;5075666;28;20393;-63
2022/07/04 00:59:02;;;;;;;14.52;13.05;;;;;;;;;;5093151;28;20028;-69
2022/07/04 01:01:28;;;;;;;17.05;13.00;;;;;;;;;;5093832;28;20027;-70
2022/07/04 01:03:54;;;;;;;15.10;13.55;;;;;;;;;;5093764;28;20095;-72
2022/07/04 01:06:20;;;;;;;15.23;12.95;;;;;;;;;;5092684;28;20077;-72
2022/07/04 01:08:47;;;;;;;14.82;13.25;;;;;;;;;;5093723;28;20068;-63
2022/07/04 01:11:13;;;;;;;14.98;13.60;;;;;;;;;;5093526;28;20452;-71
2022/07/04 01:13:42;;;;;;;15.50;13.20;;;;;;;;;;5093549;28;20028;-71
2022/07/04 01:16:09;;;;;;;14.05;12.63;;;;;;;;;;5093556;28;20104;-71
2022/07/04 01:18:35;;;;;;;13.93;12.13;;;;;;;;;;5093450;28;20031;-65
2022/07/04 01:21:01;;;;;;;13.25;12.02;;;;;;;;;;5093396;28;20020;-70
2022/07/04 01:23:27;;;;;;;15.73;12.85;;;;;;;;;;5093138;28;20032;-71
2022/07/04 01:25:53;;;;;;;14.10;12.60;;;;;;;;;;5093388;28;20024;-71
2022/07/04 01:28:21;;;;;;;15.95;13.43;;;;;;;;;;5093190;28;20039;-71
2022/07/04 01:30:47;;;;;;;16.20;13.20;;;;;;;;;;5093420;28;20047;-71
2022/07/04 01:33:13;;;;;;;14.32;12.93;;;;;;;;;;5093091;28;20402;-64
2022/07/04 01:35:39;;;;;;;15.25;13.35;;;;;;;;;;5093099;28;20024;-70
2022/07/04 01:38:05;;;;;;;16.98;13.63;;;;;;;;;;5093367;28;20036;-67
2022/07/04 01:40:31;;;;;;;14.65;13.15;;;;;;;;;;5093297;28;20020;-70
2022/07/04 01:42:58;;;;;;;17.23;13.07;;;;;;;;;;5093029;28;20051;-70
2022/07/04 01:45:24;;;;;;;14.82;13.23;;;;;;;;;;5093056;28;20028;-70
2022/07/04 01:47:50;;;;;;;14.30;12.77;;;;;;;;;;5092988;28;20031;-70
2022/07/04 01:50:17;;;;;;;15.05;13.05;;;;;;;;;;5092340;28;20051;-70
2022/07/04 01:52:43;;;;;;;14.45;13.05;;;;;;;;;;5092811;28;20034;-70
2022/07/04 01:55:10;;;;;;;12.95;11.63;;;;;;;;;;5093066;28;20024;-69
2022/07/04 01:57:36;;;;;;;15.15;13.65;;;;;;;;;;5093055;28;20084;-64
2022/07/04 02:02:48;;;;;;;15.27;13.75;;;;;;;;;;5092902;28;20039;-65
2022/07/04 02:05:15;;;;;;;13.70;12.40;;;;;;;;;;5092822;28;20058;-70
2022/07/04 02:07:41;;;;;;;15.00;13.45;;;;;;;;;;5074676;28;20420;-68
2022/07/04 02:10:07;;;;;;;14.43;13.02;;;;;;;;;;5092756;28;20027;-65
2022/07/04 02:15:18;;;;;;;14.63;12.85;;;;;;;;;;5092772;28;20447;-64
2022/07/04 02:17:44;;;;;;;18.10;14.00;;;;;;;;;;5096165;28;20024;-64
2022/07/04 02:20:10;;;;;;;14.32;12.93;;;;;;;;;;5096584;28;20031;-66
2022/07/04 02:22:36;;;;;;;14.98;13.52;;;;;;;;;;5096827;28;20024;-64
2022/07/04 02:25:02;;;;;;;14.45;12.93;;;;;;;;;;5096817;28;20028;-69
2022/07/04 02:27:28;;;;;;;15.57;12.45;;;;;;;;;;5096654;28;20020;-69
2022/07/04 02:29:54;;;;;;;14.00;12.65;;;;;;;;;;5096721;28;20109;-74
2022/07/04 02:32:20;;;;;;;14.50;13.07;;;;;;;;;;5096520;28;20024;-65
2022/07/04 02:34:46;;;;;;;14.23;12.93;;;;;;;;;;5096544;28;20384;-64
2022/07/04 02:37:13;;;;;;;16.60;12.88;;;;;;;;;;5096450;28;20377;-72
2022/07/04 02:39:39;;;;;;;14.95;13.52;;;;;;;;;;5096498;28;20104;-65
2022/07/04 02:42:05;;;;;;;17.25;13.52;;;;;;;;;;5096306;28;20582;-71
2022/07/04 02:44:31;;;;;;;15.57;13.30;;;691.30;2432.00;;;;;;5096471;28;20367;-73
2022/07/04 02:46:56;;;;;;;15.07;12.95;;;691.30;2432.00;;;;;;5096407;28;20099;-70
2022/07/04 02:49:22;;;;;;;15.38;13.50;;;691.30;2432.00;;;;;;5096322;28;20033;-64
2022/07/04 02:51:48;;;;;;;14.13;12.65;;;691.20;2432.00;;;;;;5094566;28;20024;-73
2022/07/04 02:54:15;;;;;;;13.93;11.85;;;;;;;;;;5096008;28;20039;-72
2022/07/04 02:56:41;;;;;;;17.40;13.45;;;691.20;2432.00;;;;;;5096098;28;20116;-72
2022/07/04 02:59:07;;;;;;;13.35;12.10;;;691.20;2432.00;;;;;;5096087;28;20028;-64
2022/07/04 03:01:33;;;;;;;15.20;13.73;;;666.50;2432.00;;;;;;5094228;28;20039;-70
2022/07/04 03:03:59;;;;;;;22.35;13.82;;;666.50;2432.00;;;;;;5095929;28;20028;-70
2022/07/04 03:06:25;;;;;;;13.80;12.45;;;666.50;2432.00;;;;;;5095752;28;20103;-71
2022/07/04 03:08:52;;;;;;;15.38;12.45;;;666.50;2432.00;;;;;;5095867;28;20109;-64
2022/07/04 03:11:18;;;;;;;14.45;13.05;;;666.50;2432.00;;;;;;5075312;28;20036;-65
2022/07/04 03:13:44;;;;;;;17.45;15.65;;;666.50;2432.00;;;;;;5085051;28;20020;-76
2022/07/04 03:16:10;;;;;;;16.42;14.82;;;666.50;2432.00;;;;;;5075914;28;20028;-71
2022/07/04 03:18:36;;;;;;;17.63;15.73;;;666.50;2432.00;;;;;;5075535;28;20028;-64
2022/07/04 03:21:04;;;;;;;14.70;13.20;;;666.50;2432.00;;;;;;5084134;28;20024;-65
2022/07/04 03:23:30;;;;;;;14.65;13.15;;;691.20;2432.00;;;;;;5094547;28;20028;-70
2022/07/04 03:25:56;;;;;;;14.85;13.27;;;691.20;2432.00;;;;;;5095575;28;20034;-71
2022/07/04 03:28:22;;;;;;;17.42;15.55;;;691.20;2432.00;;;;;;5094575;28;20103;-70
2022/07/04 03:30:48;;;;;;;14.75;13.15;;;691.20;2432.00;;;;;;5095532;28;20462;-68
2022/07/04 03:33:13;;;;;;;17.02;15.20;;;691.20;2432.00;;;;;;5095406;28;20024;-72
2022/07/04 03:35:39;;;;;;;17.35;14.93;;;691.20;2432.00;;;;;;5095332;28;20028;-71
2022/07/04 03:38:06;;;;;;;15.88;14.02;;;691.20;2432.00;;;;;;5095411;28;20417;-70
2022/07/04 03:40:32;;;;;;;15.32;13.07;;;;;;;;;;5095538;28;20024;-72
2022/07/04 03:42:58;;;;;;;14.27;12.88;;;;;;;;;;5095328;28;20052;-71
2022/07/04 03:45:25;;;;;;;14.60;13.10;;;;;;;;;;5093632;28;20085;-73
2022/07/04 03:47:51;;;;;;;16.52;12.93;;;;;;;;;;5094961;28;20091;-69
2022/07/04 03:50:17;;;;;;;14.45;13.15;;;;;;;;;;5095052;28;20389;-72
2022/07/04 03:52:44;;;;;;;13.88;12.57;;;;;;;;;;5093975;28;20020;-72
2022/07/04 03:55:10;;;;;;;13.85;12.07;;;;;;;;;;5095064;28;20066;-72
2022/07/04 03:57:36;;;;;;;19.33;12.90;;;;;;;;;;5095054;28;20029;-73
2022/07/04 04:00:03;;;;;;;18.92;13.07;;;;;;;;;;5094864;28;20016;-73
2022/07/04 04:02:29;;;;;;;14.25;12.70;;;;;;;;;;5094868;28;20066;-72
2022/07/04 04:07:40;;;;;;;14.43;13.02;;;;;;;;;;5094932;28;20451;-72
2022/07/04 04:10:06;;;;;;;14.13;12.73;;;;;;;;;;5092961;28;20043;-73
2022/07/04 04:12:33;;;;;;;14.40;12.90;;;;;;;;;;5094656;28;20021;-72
2022/07/04 04:14:59;;;;;;;13.82;12.43;;;;;;;;;;5094650;28;20028;-72
2022/07/04 04:17:25;;;;;;;14.15;12.23;;;;;;;;;;5094593;28;20107;-73
2022/07/04 04:19:51;;;;;;;14.68;12.77;;;;;;;;;;5094585;28;20466;-73
2022/07/04 04:22:17;;;;;;;14.95;12.88;;;;;;;;;;5094410;28;20028;-72
2022/07/04 04:24:43;;;;;;;15.40;12.98;;;;;;;;;;5094513;28;20063;-72
2022/07/04 04:27:09;;;;;;;15.55;13.32;;;;;;;;;;5094339;28;20020;-72
2022/07/04 04:29:35;;;;;;;15.55;13.00;;;;;;;;;;5094268;28;20028;-72
2022/07/04 04:32:01;;;;;;;15.63;11.00;;;;;;;;;;5094146;28;20016;-73
2022/07/04 04:34:27;;;;;;;15.65;12.00;;;;;;;;;;5092486;28;20040;-72
2022/07/04 04:36:53;;;;;;;14.32;12.38;;;;;;;;;;5094026;28;20024;-73
2022/07/04 04:39:19;;;;;;;13.07;11.77;;;;;;;;;;5093927;28;20027;-74
2022/07/04 04:41:45;;;;;;;19.60;12.90;;;;;;;;;;5093794;28;20377;-72
2022/07/04 04:44:11;;;;;;;14.73;12.52;;;;;;;;;;5093049;28;20020;-73
2022/07/04 04:46:37;;;;;;;26.00;13.57;;;;;;;;;;5094061;28;20488;-72
2022/07/04 04:49:03;;;;;;;17.38;12.07;;;;;;;;;;5093706;28;20399;-73
2022/07/04 04:51:29;;;;;;;17.02;11.90;;;691.60;2432.00;;;;;;5093799;28;20020;-73
2022/07/04 04:53:55;;;;;;;16.20;12.70;;;691.60;2432.00;;;;;;5094187;28;20081;-73
2022/07/04 04:56:21;;;;;;;16.00;11.55;;;691.70;2432.00;;;;;;5093708;28;20085;-73
2022/07/04 04:58:46;;;;;;;15.02;12.70;;;691.70;2432.00;;;;;;5093737;28;20071;-73
2022/07/04 05:01:12;;;;;;;15.18;12.60;;;;;;;;;;5093564;28;20027;-73
2022/07/04 05:03:39;;;;;;;17.38;13.35;;;;;;;;;;5093618;28;20020;-73
2022/07/04 05:06:05;;;;;;;22.83;16.15;;;;;;;;;;5093462;28;20031;-73
2022/07/04 05:08:31;;;;;;;16.52;13.68;;;;;;;;;;5093674;28;20096;-73
2022/07/04 05:10:57;;;;;;;14.40;11.93;;;;;;;;;;5093673;28;20020;-73
2022/07/04 05:13:23;;;;;;;16.05;12.52;;;;;;;;;;5093543;28;20081;-73
2022/07/04 05:15:49;;;;;;;15.05;11.27;;;;;;;;;;5093584;28;20020;-73
2022/07/04 05:18:15;;;;;;;13.90;11.27;;;;;;;;;;5093296;28;20024;-74
2022/07/04 05:20:41;;;;;;;11.75;10.45;;;;;;;;;;5093249;28;20020;-73
2022/07/04 05:23:08;;;;;;;14.65;12.25;;;;;;;;;;5093189;28;20470;-73
2022/07/04 05:25:34;;;;;;;15.90;12.05;;;;;;;;;;5093176;28;20036;-73
2022/07/04 05:28:00;;;;;;;15.38;12.27;;;;;;;;;;5093060;28;20032;-73
2022/07/04 05:30:26;;;;;;;21.00;12.38;;;;;;;;;;5093210;28;20046;-73
2022/07/04 05:32:52;;;;;;;13.32;11.93;;;;;;;;;;5092743;28;20052;-73
2022/07/04 05:35:18;;;;;;;17.85;12.13;;;;;;;;;;5092872;28;20027;-73
2022/07/04 05:37:44;;;;;;;17.67;11.68;;;;;;;;;;5092993;28;20026;-73
2022/07/04 05:40:11;;;;;;;17.63;11.43;;;;;;;;;;5092953;28;20035;-73
2022/07/04 05:42:37;;;;;;;20.90;11.65;;;;;;;;;;5092722;28;20089;-73
2022/07/04 05:45:04;;;;;;;12.07;10.77;;;;;;;;;;5093175;28;20114;-73
2022/07/04 05:47:30;;;;;;;20.77;11.30;;;;;;;;;;5093171;28;20466;-73
2022/07/04 05:49:58;;;;;;;12.13;10.40;;;;;;;;;;5092924;28;20047;-73
2022/07/04 05:52:24;;;;;;;17.90;10.70;;;;;;;;;;5092446;28;20027;-73
2022/07/04 05:54:50;;;;;;;18.48;11.55;;;;;;;;;;5092909;28;20020;-73
2022/07/04 05:57:16;;;;;;;14.75;10.93;;;;;;;;;;5092918;28;20024;-73
2022/07/04 05:59:42;;;;;;;13.48;10.77;;;;;;;;;;5092932;28;20020;-73
2022/07/04 06:02:08;;;;;;;12.73;11.43;;;;;;;;;;5093095;28;20028;-73
2022/07/04 06:04:34;;;;;;;11.48;10.32;;;;;;;;;;5093125;28;20016;-73
2022/07/04 06:07:00;;;;;;;12.30;10.48;;;;;;;;;;5092736;28;20525;-72
2022/07/04 06:09:26;;;;;;;12.73;9.85;;;;;;;;;;5092844;28;20035;-73
2022/07/04 06:11:53;;;;;;;11.02;9.93;;;;;;;;;;5092788;28;20016;-73
2022/07/04 06:14:19;;;;;;;11.57;10.18;;;;;;;;;;5092626;28;20085;-73
2022/07/04 06:16:45;;;;;;;14.68;11.82;;;;;;;;;;5092668;28;20031;-73
2022/07/04 06:19:11;;;;;;;11.13;10.10;;;;;;;;;;5092753;28;20158;-73
2022/07/04 06:21:37;;;;;;;13.18;10.02;;;;;;;;;;5092694;28;20172;-73
2022/07/04 06:24:03;;;;;;;11.85;9.02;;;;;;;;;;5092657;28;20032;-73
2022/07/04 06:26:30;;;;;;;12.27;9.48;;;;;;;;;;5074236;28;20032;-73
2022/07/04 06:28:57;;;;;;;10.85;9.70;;;;;;;;;;5092827;28;20282;-73
2022/07/04 06:31:23;;;;;;;13.50;12.23;;;;;;;;;;5092354;28;20091;-73
2022/07/04 06:36:34;;;;;;;11.43;9.38;;;;;;;;;;5092584;28;20030;-73
2022/07/04 06:39:00;;;;;;;11.25;10.07;;;;;;;;;;5092786;28;20034;-73
2022/07/04 06:41:27;;;;;;;10.25;9.13;;;;;;;;;;5092649;28;20024;-73
2022/07/04 06:43:54;;;;;;;11.25;9.50;;;;;;;;;;5092373;28;20052;-73
2022/07/04 06:46:20;;;;;;;31.85;16.60;;;;;;;;;;5092634;28;20055;-73
2022/07/04 06:48:46;;;;;;;28.80;13.60;;;;;;;;;;5092393;28;20494;-73
2022/07/04 06:51:13;;;;;;;15.02;8.80;;;;;;;;;;5092614;28;20024;-72
2022/07/04 06:53:41;;;;;;;9.93;8.20;;;;;;;;;;5092573;28;20028;-72
2022/07/04 06:56:10;;;;;;;22.92;11.13;;;;;;;;;;5092783;28;20031;-73
2022/07/04 06:58:36;;;;;;;14.07;10.45;;;;;;;;;;5092229;28;20048;-73
2022/07/04 07:01:02;;;;;;;14.35;8.70;;;;;;;;;;5074448;28;20354;-73
2022/07/04 07:03:28;;;;;;;12.32;8.88;;;;;;;;;;5092807;28;20074;-72
2022/07/04 07:05:56;;;;;;;12.30;9.00;;;;;;;;;;5096035;28;20028;-73
2022/07/04 07:08:22;;;;;;;34.55;17.25;;;;;;;;;;5095890;28;20398;-73
2022/07/04 07:10:48;;;;;;;30.35;15.98;;;;;;;;;;5096146;28;20012;-73
2022/07/04 07:13:14;;;;;;;37.35;17.83;;;;;;;;;;5095758;28;20533;-73
2022/07/04 07:15:40;;;;;;;12.98;7.93;;;;;;;;;;5094199;28;20028;-73
2022/07/04 07:18:07;;;;;;;16.30;10.73;;;;;;;;;;5095842;28;20046;-73
2022/07/04 07:20:33;;;;;;;14.55;10.90;;;;;;;;;;5095555;28;20024;-73
2022/07/04 07:23:01;;;;;;;241.93;99.93;;;;;;;;;;5095701;28;20024;-73
2022/07/04 07:25:27;;;;;;;78.22;34.55;;;;;;;;;;5095502;28;20429;-73
2022/07/04 07:27:53;;;;;;;32.65;17.52;;;;;;;;;;5095236;28;20043;-73
2022/07/04 07:30:20;;;;;;;81.78;32.53;;;;;;;;;;5095298;28;20024;-73
2022/07/04 07:32:46;;;;;;;122.95;52.67;;;;;;;;;;5095272;28;20016;-73
2022/07/04 07:35:12;;;;;;;47.35;21.15;;;;;;;;;;5095256;28;20117;-73
2022/07/04 07:37:38;;;;;;;25.55;14.68;;;;;;;;;;5093731;28;20016;-73
2022/07/04 07:40:04;;;;;;;121.30;48.22;;;;;;;;;;5095520;28;20051;-73
2022/07/04 07:42:30;;;;;;;72.38;34.92;;;;;;;;;;5095086;28;20525;-73
2022/07/04 07:44:57;;;;;;;46.33;24.67;;;;;;;;;;5095170;28;20111;-73
2022/07/04 07:47:23;;;;;;;36.67;18.23;;;;;;;;;;5095063;28;20020;-73
2022/07/04 07:49:49;;;;;;;17.13;11.27;;;;;;;;;;5094789;28;20036;-73
2022/07/04 07:52:15;;;;;;;19.50;13.43;;;;;;;;;;5094652;28;20024;-73
2022/07/04 07:54:42;;;;;;;27.08;15.35;;;;;;;;;;5095387;28;20383;-73
2022/07/04 07:57:08;;;;;;;20.63;11.93;;;;;;;;;;5077117;28;20020;-73
2022/07/04 07:59:34;;;;;;;26.27;13.95;;;;;;;;;;5094908;28;20020;-74
2022/07/04 08:02:00;;;;;;;24.73;15.40;;;;;;;;;;5094861;28;20456;-73
2022/07/04 08:04:35;;;;;;;20.05;12.27;;;;;;;;;;5094725;28;20023;-73
2022/07/04 08:07:09;;;;;;;19.05;12.80;;;;;;;;;;5094668;28;20035;-73
2022/07/04 08:09:35;;;;;;;26.27;15.73;;;;;;;;;;5094475;28;20036;-73
2022/07/04 08:12:02;;;;;;;23.88;14.30;;;;;;;;;;5092965;28;20076;-73
2022/07/04 08:14:28;;;;;;;28.63;16.25;;;;;;;;;;5094000;28;20517;-74
2022/07/04 08:16:55;;;;;;;27.08;13.40;;;;;;;;;;5094576;28;20020;-73
2022/07/04 08:19:21;;;;;;;21.98;13.60;;;;;;;;;;5094388;28;20020;-73
2022/07/04 08:21:47;;;;;;;23.45;13.57;;;;;;;;;;5094561;28;20027;-73
2022/07/04 08:24:14;;;;;;;35.10;18.52;;;;;;;;;;5094372;28;20027;-74
2022/07/04 08:26:40;;;;;;;28.52;16.65;;;;;;;;;;5092557;28;20039;-73
2022/07/04 08:29:07;;;;;;;32.60;17.25;;;;;;;;;;5094137;28;20476;-73
2022/07/04 08:31:33;;;;;;;47.58;22.48;;;;;;;;;;5093777;28;20028;-73
2022/07/04 08:33:59;;;;;;;15.57;12.57;;;;;;;;;;5093745;28;20103;-73
2022/07/04 08:36:25;;;;;;;24.95;16.83;;;;;;;;;;5094008;28;20016;-74
2022/07/04 08:38:51;;;;;;;30.92;16.17;;;;;;;;;;5093854;28;20468;-74
2022/07/04 08:41:18;;;;;;;32.78;14.77;;;;;;;;;;5093904;28;20020;-74
2022/07/04 08:43:46;;;;;;;81.80;36.75;;;;;;;;;;5093751;28;20044;-73
2022/07/04 08:46:13;;;;;;;31.20;16.95;;;;;;;;;;5094041;28;20070;-74
2022/07/04 08:48:41;;;;;;;30.15;17.35;;;;;;;;;;5093593;28;20497;-74
2022/07/04 08:51:07;;;;;;;15.65;11.65;;;;;;;;;;5093675;28;20537;-74
2022/07/04 08:53:34;;;;;;;13.75;10.32;;;;;;;;;;5092399;28;20035;-74
2022/07/04 08:58:46;;;;;;;19.55;11.60;;;;;;;;;;5093676;28;20115;-73
2022/07/04 09:01:15;;;;;;;16.67;11.40;;;;;;;;;;5093538;28;20016;-73
2022/07/04 09:03:45;;;;;;;18.80;10.77;;;;;;;;;;5076095;28;20499;-72
2022/07/04 09:06:11;;;;;;;15.38;11.77;;;;;;;;;;5093910;28;20012;-73
2022/07/04 09:08:38;;;;;;;16.08;10.90;;;;;;;;;;5093406;28;20546;-73
2022/07/04 09:11:04;;;;;;;21.10;14.95;;;;;;;;;;5093949;28;20464;-73
2022/07/04 09:13:31;;;;;;;15.95;12.20;;;;;;;;;;5093475;28;20031;-73
2022/07/04 09:15:57;;;;;;;18.77;13.10;;;;;;;;;;5093392;28;20103;-73
2022/07/04 09:18:23;;;;;;;26.40;12.35;;;;;;;;;;5093376;28;20378;-73
2022/07/04 09:20:50;;;;;;;30.63;13.75;;;;;;;;;;5093493;28;20043;-72
2022/07/04 09:23:23;;;;;;;58.83;15.27;;;;;;;;;;5093480;28;20120;-73
2022/07/04 09:25:50;;;;;;;18.00;12.38;;;;;;;;;;5092826;28;20029;-73
2022/07/04 09:28:28;;;;;;;19.33;12.82;;;;;;;;;;5092742;28;20051;-73
2022/07/04 09:30:55;;;;;;;23.65;13.30;;;;;;;;;;5093363;28;20485;-73
2022/07/04 09:33:21;;;;;;;25.92;11.90;;;;;;;;;;5093487;28;20031;-73
2022/07/04 09:35:48;;;;;;;22.52;13.65;;;;;;;;;;5093452;28;20099;-72
2022/07/04 09:38:22;;;;;;;19.15;12.02;;;;;;;;;;5092999;28;20055;-74
2022/07/04 09:43:37;;;;;;;18.23;11.18;;;;;;;;;;5093072;28;20058;-74
2022/07/04 09:46:03;;;;;;;20.45;15.77;;;;;;;;;;5093054;28;20130;-74
2022/07/04 09:48:49;;;;;;;29.15;25.23;;;;;;;;;;5176326;22;20044;-73
2022/07/04 09:51:15;;;;;;;15.10;12.25;;;;;;;;;;5072758;28;20070;-74
2022/07/04 09:53:41;;;;;;;16.35;12.30;;;;;;;;;;5072656;28;20082;-73
2022/07/04 09:56:07;;;;;;;21.08;12.48;;;;;;;;;;5072793;28;20062;-74
2022/07/04 09:58:39;;;;;;;17.10;12.65;;;;;;;;;;5112811;22;20429;-74
2022/07/04 10:03:51;;;;;;;15.13;10.85;;;;;;;;;;5124645;22;20087;-75
2022/07/04 10:06:18;;;;;;;17.45;12.82;;;;;;;;;;5112319;28;20046;-74
2022/07/04 10:08:44;;;;;;;12.98;11.68;;;;;;;;;;5112966;28;20070;-74
2022/07/04 10:11:11;;;;;;;16.70;11.65;;;;;;;;;;5113150;28;20400;-74
2022/07/04 10:13:38;;;;;;;12.10;9.95;;;;;;;;;;5113117;28;20024;-74
2022/07/04 10:16:06;;;;;;;19.30;11.82;;;;;;;;;;5113319;28;20020;-74
2022/07/04 10:18:34;;;;;;;13.77;11.05;;;;;;;;;;5113099;28;20481;-75
2022/07/04 10:21:00;;;;;;;14.10;10.93;;;;;;;;;;5113242;28;20024;-74
2022/07/04 10:23:31;;;;;;;15.90;10.60;;;;;;;;;;5113099;28;20034;-75
2022/07/04 10:25:57;;;;;;;12.10;9.80;;;;;;;;;;5113142;28;20020;-74
2022/07/04 10:28:24;;;;;;;14.10;12.10;;;;;;;;;;5113169;28;20031;-75
2022/07/04 10:30:51;;;;;;;13.70;10.82;;;;;;;;;;5113231;28;20080;-74
2022/07/04 10:33:22;;;;;;;10.85;9.77;;;;;;;;;;5112992;28;20032;-75
2022/07/04 10:35:49;;;;;;;15.48;9.52;;;;;;;;;;5112859;28;20474;-75
2022/07/04 10:38:17;;;;;;;11.05;9.18;;;;;;;;;;5096655;28;20111;-73
2022/07/04 10:40:45;;;;;;;13.38;10.48;;;;;;;;;;5117023;28;20059;-74
2022/07/04 10:46:14;;;;;;;13.07;9.82;;;;;;;;;;5116917;28;20034;-75
2022/07/04 10:48:50;;;;;;;12.85;10.25;;;;;;;;;;5116844;28;20042;-75
2022/07/04 10:51:23;;;;;;;15.45;11.55;;;;;;;;;;5116585;28;20144;-75
2022/07/04 10:53:59;;;;;;;12.68;10.50;;;;;;;;;;5116543;28;20020;-74
2022/07/04 10:56:27;;;;;;;12.23;10.60;;;;;;;;;;5116694;28;20023;-74
2022/07/04 10:58:55;;;;;;;11.40;10.32;;;;;;;;;;5116761;28;20024;-74
2022/07/04 11:01:21;;;;;;;12.57;10.38;;;;;;;;;;5116312;28;20016;-73
2022/07/04 11:03:48;;;;;;;11.70;10.48;;;;;;;;;;5116531;28;20032;-73
2022/07/04 11:06:33;;;;;;;11.25;10.15;;;;;;;;;;5116612;28;20026;-73
2022/07/04 11:09:11;;;;;;;12.25;10.63;;;;;;;;;;5116166;28;20489;-73
2022/07/04 11:11:56;;;;;;;13.43;11.57;;;;;;;;;;5116411;28;20096;-75
2022/07/04 11:14:41;;;;;;;11.85;9.95;;;;;;;;;;5116374;28;20041;-74
2022/07/04 11:17:16;;;;;;;15.10;11.32;;;;;;;;;;5116458;28;20031;-75
2022/07/04 11:19:43;;;;;;;13.63;10.70;;;;;;;;;;5116249;28;20016;-74
2022/07/04 11:22:10;;;;;;;13.02;11.18;;;;;;;;;;5116392;28;20023;-74
2022/07/04 11:24:37;;;;;;;13.10;11.80;;;;;;;;;;5114936;28;20052;-74
2022/07/04 11:27:04;;;;;;;13.30;11.30;;;;;;;;;;5116333;28;20474;-73
2022/07/04 11:29:30;;;;;;;13.93;12.48;;;;;;;;;;5115820;28;20115;-73
2022/07/04 11:31:57;;;;;;;15.32;12.55;;;;;;;;;;5115978;28;20083;-73
2022/07/04 11:34:23;;;;;;;13.73;12.45;;;;;;;;;;5115986;28;20030;-73
2022/07/04 11:36:50;;;;;;;14.35;13.00;;;;;;;;;;5115883;28;20024;-73
2022/07/04 11:39:19;;;;;;;14.02;12.63;;;;;;;;;;5115555;28;20104;-73
2022/07/04 11:47:21;;;;;;;14.48;12.95;;;;;;;;;;5115773;28;20034;-74
2022/07/04 11:49:57;;;;;;;14.68;12.45;;;;;;;;;;5114844;28;20556;-74
2022/07/04 11:52:24;;;;;;;14.15;12.35;;;;;;;;;;5115616;28;20084;-74
2022/07/04 11:54:51;;;;;;;16.33;13.57;;;;;;;;;;5115717;28;20027;-74
2022/07/04 11:57:22;;;;;;;15.10;13.35;;;;;;;;;;5115404;28;20016;-74
2022/07/04 11:59:59;;;;;;;14.07;12.68;;;;;;;;;;5115380;28;20079;-74
2022/07/04 12:02:25;;;;;;;15.75;12.75;;;;;;;;;;5113773;28;20071;-74
2022/07/04 12:04:51;;;;;;;14.75;13.23;;;;;;;;;;5114075;28;20446;-74
2022/07/04 12:07:18;;;;;;;13.77;12.30;;;;;;;;;;5115090;28;20024;-74
2022/07/04 12:09:45;;;;;;;15.48;13.05;;;;;;;;;;5115057;28;20028;-74
2022/07/04 12:12:12;;;;;;;16.10;12.93;;;;;;;;;;5115105;28;20073;-74
2022/07/04 12:14:38;;;;;;;15.02;13.48;;;;;;;;;;5115091;28;20469;-74
2022/07/04 12:17:18;;;;;;;14.88;13.30;;;;;;;;;;5115237;28;20043;-73
2022/07/04 12:19:58;;;;;;;17.30;13.43;;;;;;;;;;5114935;28;20473;-73
2022/07/04 12:22:31;;;;;;;16.48;13.80;;;;;;;;;;5115139;28;20020;-73
2022/07/04 12:24:58;;;;;;;24.83;14.38;;;;;;;;;;5114924;28;20023;-73
2022/07/04 12:27:25;;;;;;;14.77;13.27;;;;;;;;;;5114895;28;20019;-73
2022/07/04 12:29:53;;;;;;;14.93;13.13;;;;;;;;;;5115049;28;20035;-73
2022/07/04 12:32:19;;;;;;;14.60;13.23;;;;;;;;;;5115045;28;20100;-73
2022/07/04 12:34:46;;;;;;;15.20;13.85;;;;;;;;;;5113317;28;20035;-73
2022/07/04 12:37:13;;;;;;;15.57;14.00;;;;;;;;;;5114836;28;20024;-73
2022/07/04 12:39:40;;;;;;;15.15;13.60;;;;;;;;;;5114630;28;20030;-73
2022/07/04 12:42:09;;;;;;;22.70;14.05;;;;;;;;;;5114650;28;20020;-75
2022/07/04 12:44:36;;;;;;;16.70;15.00;;;;;;;;;;5114771;28;20492;-75
2022/07/04 12:47:03;;;;;;;18.75;14.15;;;;;;;;;;5114663;28;20036;-75
2022/07/04 12:49:29;;;;;;;20.23;15.27;;;;;;;;;;5113177;28;20032;-75
2022/07/04 12:52:05;;;;;;;15.85;14.18;;;;;;;;;;5114626;28;20039;-75
2022/07/04 12:54:31;;;;;;;15.85;14.10;;;;;;;;;;5114637;28;20055;-75
2022/07/04 12:57:06;;;;;;;16.70;15.05;;;;;;;;;;5114595;28;20020;-75
2022/07/04 12:59:33;;;;;;;16.70;15.10;;;;;;;;;;5114339;28;20103;-75
2022/07/04 13:01:59;;;;;;;17.45;14.15;;;;;;;;;;5114003;28;20131;-74
2022/07/04 13:04:25;;;;;;;16.23;14.60;;;;;;;;;;5114321;28;20028;-73
2022/07/04 13:06:52;;;;;;;16.98;15.38;;;;;;;;;;5112460;28;20457;-73
2022/07/04 13:09:18;;;;;;;16.98;15.20;;;;;;;;;;5113903;28;20041;-73
2022/07/04 13:14:29;;;;;;;16.77;15.10;;;;;;;;;;5114233;28;20031;-73
2022/07/04 13:16:55;;;;;;;15.52;13.98;;;;;;;;;;5112248;28;20478;-73
2022/07/04 13:19:21;;;;;;;17.02;15.35;;;;;;;;;;5113946;28;20023;-73
2022/07/04 13:21:47;;;;;;;18.20;16.25;;;;;;;;;;5113779;28;20684;-74
2022/07/04 13:24:13;;;;;;;17.85;14.70;;;;;;;;;;5113897;28;20058;-74
2022/07/04 13:26:42;;;;;;;16.63;15.00;;;;;;;;;;5113752;28;20492;-74
2022/07/04 13:29:09;;;;;;;18.35;15.23;;;;;;;;;;5112601;28;20577;-74
2022/07/04 13:31:36;;;;;;;16.88;14.93;;;;;;;;;;5113471;28;20028;-74
2022/07/04 13:34:02;;;;;;;16.63;14.88;;;;;;;;;;5112557;28;20496;-75
2022/07/04 13:36:28;;;;;;;17.67;15.77;;;;;;;;;;5113670;28;20038;-75
2022/07/04 13:38:54;;;;;;;18.95;15.68;;;;;;;;;;5113665;28;20072;-74
2022/07/04 13:41:20;;;;;;;16.63;14.95;;;;;;;;;;5113537;28;20461;-74
2022/07/04 13:43:49;;;;;;;17.70;16.00;;;;;;;;;;5113968;28;20031;-74
2022/07/04 13:46:51;;;;;;;16.05;14.52;;;;;;;;;;5095781;28;20023;-74
2022/07/04 13:49:17;;;;;;;17.50;15.63;;;;;;;;;;5030729;28;20495;-74
2022/07/04 13:51:43;;;;;;;17.02;15.32;;;;;;;;;;5014454;28;20048;-74
2022/07/04 13:54:10;;;;;;;17.23;15.48;;;;;;;;;;5031087;28;20068;-74
2022/07/04 13:56:36;;;;;;;18.27;16.40;;;;;;;;;;5030894;28;20029;-74
2022/07/04 13:59:02;;;;;;;19.58;16.88;;;;;;;;;;5030977;28;20466;-74
2022/07/04 14:01:29;;;;;;;21.88;17.38;;;;;;;;;;5030487;28;20052;-73
2022/07/04 14:03:55;;;;;;;17.38;15.68;;;;;;;;;;5030966;28;20064;-74
2022/07/04 14:06:21;;;;;;;18.42;15.57;;;;;;;;;;5030895;28;20112;-74
2022/07/04 14:08:48;;;;;;;17.67;16.02;;;;;;;;;;5030567;28;20033;-74
2022/07/04 14:11:16;;;;;;;18.00;16.40;;;;;;;;;;5030921;28;20153;-74
2022/07/04 14:13:45;;;;;;;18.50;16.80;;;;;;;;;;5033530;28;20052;-74
2022/07/04 14:16:11;;;;;;;18.33;16.52;;;;;;;;;;5034756;28;20059;-74
2022/07/04 14:18:37;;;;;;;17.27;15.52;;;;;;;;;;5034906;28;20030;-73
2022/07/04 14:21:04;;;;;;;18.25;16.33;;;;;;;;;;5034690;28;20101;-73
2022/07/04 14:23:42;;;;;;;17.33;15.60;;;;;;;;;;5085548;28;20040;-74
2022/07/04 14:26:12;;;;;;;18.60;16.80;;;;;;;;;;5117343;28;20046;-73
2022/07/04 14:28:39;;;;;;;19.77;17.88;;;;;;;;;;5117388;28;20097;-74
2022/07/04 14:31:05;;;;;;;18.38;16.40;;;;;;;;;;5117139;28;20038;-74
2022/07/04 14:33:32;;;;;;;18.60;16.60;;;;;;;;;;5115408;28;20035;-74
2022/07/04 14:35:58;;;;;;;17.92;16.23;;;;;;;;;;5117126;28;20027;-73